sensor_id;sensor_type;location;lat;lon;timestamp;pressure;altitude;pressure_sealevel;temperature;humidity
59987;BME280;46181;51.498;5.392;2023-07-24T00:03:32;100374.3;;;22.89;64.28809
59987;BME280;46181;51.498;5.392;2023-07-24T00:08:02;100369.1;;;22.92;64.29297
59987;BME280;46181;51.498;5.392;2023-07-24T00:12:32;100368.3;;;22.96;64.29785
59987;BME280;46181;51.498;5.392;2023-07-24T00:17:02;100361.4;;;22.98;64.19727
59987;BME280;46181;51.498;5.392;2023-07-24T00:21:32;100361.5;;;22.98;64.23145
59987;BME280;46181;51.498;5.392;2023-07-24T00:26:02;100356.4;;;22.96;64.26465
59987;BME280;46181;51.498;5.392;2023-07-24T00:30:32;100345.6;;;22.99;64.23438
59987;BME280;46181;51.498;5.392;2023-07-24T00:35:02;100334.5;;;22.99;64.26855
59987;BME280;46181;51.498;5.392;2023-07-24T00:39:32;100334.1;;;23;64.27051
59987;BME280;46181;51.498;5.392;2023-07-24T00:44:02;100328.6;;;22.96;64.25293
59987;BME280;46181;51.498;5.392;2023-07-24T00:48:32;100325;;;22.94;64.23828
59987;BME280;46181;51.498;5.392;2023-07-24T00:53:02;100332.6;;;22.93;64.22559
59987;BME280;46181;51.498;5.392;2023-07-24T00:57:32;100319.8;;;22.92;64.29297
59987;BME280;46181;51.498;5.392;2023-07-24T01:02:02;100314.5;;;22.91;64.33691
59987;BME280;46181;51.498;5.392;2023-07-24T01:06:32;100308.9;;;22.91;64.29199
59987;BME280;46181;51.498;5.392;2023-07-24T01:11:03;100301.7;;;22.89;64.24219
59987;BME280;46181;51.498;5.392;2023-07-24T01:15:34;100293.9;;;22.81;64.31348
59987;BME280;46181;51.498;5.392;2023-07-24T01:20:04;100287.8;;;22.77;64.41113
59987;BME280;46181;51.498;5.392;2023-07-24T01:24:41;100289;;;22.72;64.63477
59987;BME280;46181;51.498;5.392;2023-07-24T01:29:02;100288.8;;;22.77;64.63086
59987;BME280;46181;51.498;5.392;2023-07-24T01:33:32;100294.8;;;22.65;64.50879
59987;BME280;46181;51.498;5.392;2023-07-24T01:38:05;100287.6;;;22.52;64.69824
59987;BME280;46181;51.498;5.392;2023-07-24T01:42:33;100282.2;;;22.5;64.93652
59987;BME280;46181;51.498;5.392;2023-07-24T01:47:02;100272.2;;;22.54;64.88574
59987;BME280;46181;51.498;5.392;2023-07-24T01:51:32;100264.7;;;22.51;64.97363
59987;BME280;46181;51.498;5.392;2023-07-24T01:56:02;100253.9;;;22.51;65.02051
59987;BME280;46181;51.498;5.392;2023-07-24T02:00:32;100252.7;;;22.53;64.94238
59987;BME280;46181;51.498;5.392;2023-07-24T02:05:02;100238;;;22.54;65.11523
59987;BME280;46181;51.498;5.392;2023-07-24T02:09:32;100235.9;;;22.54;65.12793
59987;BME280;46181;51.498;5.392;2023-07-24T02:14:02;100234.5;;;22.56;65.08496
59987;BME280;46181;51.498;5.392;2023-07-24T02:18:32;100228.1;;;22.57;65.0752
59987;BME280;46181;51.498;5.392;2023-07-24T02:23:02;100231.3;;;22.59;65.11133
59987;BME280;46181;51.498;5.392;2023-07-24T02:27:39;100231.1;;;22.53;65.24219
59987;BME280;46181;51.498;5.392;2023-07-24T02:32:03;100227;;;22.58;65.17969
59987;BME280;46181;51.498;5.392;2023-07-24T02:36:32;100230.6;;;22.59;65.19238
59987;BME280;46181;51.498;5.392;2023-07-24T02:41:02;100239.6;;;22.6;65.20508
59987;BME280;46181;51.498;5.392;2023-07-24T02:45:32;100242.3;;;22.58;65.16797
59987;BME280;46181;51.498;5.392;2023-07-24T02:50:02;100225.9;;;22.51;65.25098
59987;BME280;46181;51.498;5.392;2023-07-24T02:54:34;100221.3;;;22.44;65.42383
59987;BME280;46181;51.498;5.392;2023-07-24T02:59:02;100222.8;;;22.45;65.53027
59987;BME280;46181;51.498;5.392;2023-07-24T03:03:32;100225.9;;;22.39;65.39258
59987;BME280;46181;51.498;5.392;2023-07-24T03:08:02;100211.6;;;22.27;65.37891
59987;BME280;46181;51.498;5.392;2023-07-24T03:12:32;100207.5;;;22.16;65.67188
59987;BME280;46181;51.498;5.392;2023-07-24T03:17:02;100206.1;;;22.1;65.65234
59987;BME280;46181;51.498;5.392;2023-07-24T03:21:32;100223.2;;;22.03;65.7002
59987;BME280;46181;51.498;5.392;2023-07-24T03:26:02;100223.5;;;21.93;65.74219
59987;BME280;46181;51.498;5.392;2023-07-24T03:30:32;100209.5;;;21.88;65.88574
59987;BME280;46181;51.498;5.392;2023-07-24T03:35:02;100205.8;;;21.9;65.89844
59987;BME280;46181;51.498;5.392;2023-07-24T03:39:32;100197.9;;;21.89;65.7832
59987;BME280;46181;51.498;5.392;2023-07-24T03:44:02;100191.5;;;21.88;65.86133
59987;BME280;46181;51.498;5.392;2023-07-24T03:48:32;100191.8;;;21.92;65.83301
59987;BME280;46181;51.498;5.392;2023-07-24T03:53:02;100191.6;;;21.96;65.71191
59987;BME280;46181;51.498;5.392;2023-07-24T03:57:32;100186.4;;;21.93;65.67285
59987;BME280;46181;51.498;5.392;2023-07-24T04:02:02;100202;;;21.97;65.67969
59987;BME280;46181;51.498;5.392;2023-07-24T04:06:32;100202.8;;;21.94;65.59473
59987;BME280;46181;51.498;5.392;2023-07-24T04:11:02;100211.9;;;21.93;65.68457
59987;BME280;46181;51.498;5.392;2023-07-24T04:15:32;100224.6;;;21.91;65.6709
59987;BME280;46181;51.498;5.392;2023-07-24T04:20:02;100224.9;;;21.87;65.59473
59987;BME280;46181;51.498;5.392;2023-07-24T04:24:32;100216.7;;;21.86;65.81348
59987;BME280;46181;51.498;5.392;2023-07-24T04:29:02;100212.9;;;21.81;65.70215
59987;BME280;46181;51.498;5.392;2023-07-24T04:33:32;100219;;;21.76;65.82227
59987;BME280;46181;51.498;5.392;2023-07-24T04:38:02;100225.9;;;21.77;65.8125
59987;BME280;46181;51.498;5.392;2023-07-24T04:42:32;100230.6;;;21.74;65.76074
59987;BME280;46181;51.498;5.392;2023-07-24T04:47:02;100225.8;;;21.68;65.81055
59987;BME280;46181;51.498;5.392;2023-07-24T04:51:32;100223.2;;;21.66;65.92188
59987;BME280;46181;51.498;5.392;2023-07-24T04:56:02;100226.9;;;21.61;65.92676
59987;BME280;46181;51.498;5.392;2023-07-24T05:00:32;100219.6;;;21.6;66.03906
59987;BME280;46181;51.498;5.392;2023-07-24T05:05:02;100214.1;;;21.58;66.04883
59987;BME280;46181;51.498;5.392;2023-07-24T05:09:32;100223.3;;;21.57;66.1377
59987;BME280;46181;51.498;5.392;2023-07-24T05:14:02;100223.2;;;21.62;66.10059
59987;BME280;46181;51.498;5.392;2023-07-24T05:18:32;100232.6;;;21.66;66.00195
59987;BME280;46181;51.498;5.392;2023-07-24T05:23:02;100240;;;21.66;65.875
59987;BME280;46181;51.498;5.392;2023-07-24T05:27:32;100232.9;;;21.65;65.95508
59987;BME280;46181;51.498;5.392;2023-07-24T05:32:03;100242.4;;;21.67;65.94629
59987;BME280;46181;51.498;5.392;2023-07-24T05:41:07;100249.5;;;21.84;66.16699
59987;BME280;46181;51.498;5.392;2023-07-24T05:45:32;100239.1;;;21.95;66.04492
59987;BME280;46181;51.498;5.392;2023-07-24T05:50:03;100245.1;;;22.04;65.88672
59987;BME280;46181;51.498;5.392;2023-07-24T05:54:32;100254.3;;;22.15;65.74121
59987;BME280;46181;51.498;5.392;2023-07-24T05:59:02;100267.5;;;22.21;65.4375
59987;BME280;46181;51.498;5.392;2023-07-24T06:03:33;100253.7;;;22.27;65.43457
59987;BME280;46181;51.498;5.392;2023-07-24T06:08:03;100255.8;;;22.33;65.30469
59987;BME280;46181;51.498;5.392;2023-07-24T06:12:33;100265.5;;;22.38;65.24316
59987;BME280;46181;51.498;5.392;2023-07-24T06:17:03;100266.2;;;22.5;65.25977
59987;BME280;46181;51.498;5.392;2023-07-24T06:21:32;100263;;;22.61;65.09277
59987;BME280;46181;51.498;5.392;2023-07-24T06:26:02;100264.5;;;22.83;65.04395
59987;BME280;46181;51.498;5.392;2023-07-24T06:30:32;100269.2;;;23.08;64.7207
59987;BME280;46181;51.498;5.392;2023-07-24T06:35:03;100270.6;;;23.24;64.27051
59987;BME280;46181;51.498;5.392;2023-07-24T06:39:32;100264.7;;;23.24;64.14258
59987;BME280;46181;51.498;5.392;2023-07-24T06:44:02;100274.6;;;23.17;64.22559
59987;BME280;46181;51.498;5.392;2023-07-24T06:48:32;100267.3;;;23.04;64.50684
59987;BME280;46181;51.498;5.392;2023-07-24T06:53:02;100266.3;;;23;64.70898
59987;BME280;46181;51.498;5.392;2023-07-24T06:57:32;100261.8;;;22.88;64.69238
59987;BME280;46181;51.498;5.392;2023-07-24T07:02:02;100265.5;;;22.82;65.00684
59987;BME280;46181;51.498;5.392;2023-07-24T07:06:32;100263.1;;;22.79;64.96875
59987;BME280;46181;51.498;5.392;2023-07-24T07:11:07;100265.2;;;22.62;64.97852
59987;BME280;46181;51.498;5.392;2023-07-24T07:15:33;100264.8;;;22.52;65.18164
59987;BME280;46181;51.498;5.392;2023-07-24T07:20:03;100261.6;;;22.39;65.42871
59987;BME280;46181;51.498;5.392;2023-07-24T07:24:32;100257.3;;;22.32;65.39551
59987;BME280;46181;51.498;5.392;2023-07-24T07:29:02;100255.7;;;22.3;65.64746
59987;BME280;46181;51.498;5.392;2023-07-24T07:33:32;100253.1;;;22.35;65.89551
59987;BME280;46181;51.498;5.392;2023-07-24T07:38:02;100268;;;22.67;66.02344
59987;BME280;46181;51.498;5.392;2023-07-24T07:42:32;100262.9;;;22.96;65.62695
59987;BME280;46181;51.498;5.392;2023-07-24T07:47:03;100257.6;;;23.12;65.47754
59987;BME280;46181;51.498;5.392;2023-07-24T07:51:32;100250.3;;;23.35;65.68652
59987;BME280;46181;51.498;5.392;2023-07-24T07:56:08;100260;;;23.67;65.5
59987;BME280;46181;51.498;5.392;2023-07-24T08:00:33;100255.2;;;24.01;64.83008
59987;BME280;46181;51.498;5.392;2023-07-24T08:05:03;100267.4;;;24.19;64.50977
59987;BME280;46181;51.498;5.392;2023-07-24T08:09:32;100259.9;;;24.25;64.06543
59987;BME280;46181;51.498;5.392;2023-07-24T08:14:02;100258.7;;;24.35;63.96484
59987;BME280;46181;51.498;5.392;2023-07-24T08:18:32;100253;;;24.5;63.66016
59987;BME280;46181;51.498;5.392;2023-07-24T08:23:02;100243.4;;;24.38;63.44824
59987;BME280;46181;51.498;5.392;2023-07-24T08:27:32;100242;;;24.33;63.60254
59987;BME280;46181;51.498;5.392;2023-07-24T08:32:03;100252.3;;;24.41;63.5332
59987;BME280;46181;51.498;5.392;2023-07-24T08:36:32;100246.7;;;24.47;63.38965
59987;BME280;46181;51.498;5.392;2023-07-24T08:41:08;100250.4;;;24.39;63.29883
59987;BME280;46181;51.498;5.392;2023-07-24T08:45:33;100254;;;24.45;63.49219
59987;BME280;46181;51.498;5.392;2023-07-24T08:50:03;100248.4;;;24.6;63.33887
59987;BME280;46181;51.498;5.392;2023-07-24T08:54:33;100245.4;;;24.69;63.17773
59987;BME280;46181;51.498;5.392;2023-07-24T08:59:02;100238.9;;;24.75;63.08105
59987;BME280;46181;51.498;5.392;2023-07-24T09:03:33;100230.2;;;24.76;63.12988
59987;BME280;46181;51.498;5.392;2023-07-24T09:08:02;100223.4;;;24.84;62.94434
59987;BME280;46181;51.498;5.392;2023-07-24T09:12:32;100213.5;;;24.91;62.86133
59987;BME280;46181;51.498;5.392;2023-07-24T09:17:10;100206.5;;;25.12;62.87695
59987;BME280;46181;51.498;5.392;2023-07-24T09:21:42;100204.8;;;25.55;62.55371
59987;BME280;46181;51.498;5.392;2023-07-24T09:26:04;100196.3;;;25.66;61.90527
59987;BME280;46181;51.498;5.392;2023-07-24T09:30:32;100200;;;25.55;61.84277
59987;BME280;46181;51.498;5.392;2023-07-24T09:35:03;100190.8;;;25.42;62.11621
59987;BME280;46181;51.498;5.392;2023-07-24T09:39:36;100169.5;;;25.24;62.02246
59987;BME280;46181;51.498;5.392;2023-07-24T09:44:06;100178.3;;;25.09;62.54785
59987;BME280;46181;51.498;5.392;2023-07-24T09:48:33;100168.8;;;25.12;62.56445
59987;BME280;46181;51.498;5.392;2023-07-24T09:53:04;100155.4;;;25.06;62.47461
59987;BME280;46181;51.498;5.392;2023-07-24T09:57:34;100145.2;;;24.9;62.62598
59987;BME280;46181;51.498;5.392;2023-07-24T10:02:03;100145.7;;;24.78;62.69043
59987;BME280;46181;51.498;5.392;2023-07-24T10:06:33;100153.6;;;24.67;62.79199
59987;BME280;46181;51.498;5.392;2023-07-24T10:11:03;100162.6;;;24.61;62.81836
59987;BME280;46181;51.498;5.392;2023-07-24T10:15:33;100175.5;;;24.6;62.79297
59987;BME280;46181;51.498;5.392;2023-07-24T10:20:11;100175.5;;;24.55;62.91406
59987;BME280;46181;51.498;5.392;2023-07-24T10:24:37;100189;;;24.54;62.80859
59987;BME280;46181;51.498;5.392;2023-07-24T10:29:03;100188.1;;;24.51;62.75781
59987;BME280;46181;51.498;5.392;2023-07-24T10:33:33;100189.4;;;24.44;62.71289
59987;BME280;46181;51.498;5.392;2023-07-24T10:38:08;100183.5;;;24.31;62.79883
59987;BME280;46181;51.498;5.392;2023-07-24T10:42:33;100184.2;;;24.4;62.70801
59987;BME280;46181;51.498;5.392;2023-07-24T10:47:03;100200.6;;;24.6;62.54883
59987;BME280;46181;51.498;5.392;2023-07-24T10:51:33;100204.3;;;24.82;62.0459
59987;BME280;46181;51.498;5.392;2023-07-24T10:56:03;100202.6;;;24.93;61.73633
59987;BME280;46181;51.498;5.392;2023-07-24T11:00:34;100193.5;;;24.95;61.59961
59987;BME280;46181;51.498;5.392;2023-07-24T11:05:03;100203.7;;;25.08;61.51074
59987;BME280;46181;51.498;5.392;2023-07-24T11:09:42;100199.3;;;25.33;61.41797
59987;BME280;46181;51.498;5.392;2023-07-24T11:14:03;100205.5;;;25.71;60.69141
59987;BME280;46181;51.498;5.392;2023-07-24T11:18:33;100207.1;;;25.88;60.30469
59987;BME280;46181;51.498;5.392;2023-07-24T11:23:06;100198.2;;;25.86;60.17578
59987;BME280;46181;51.498;5.392;2023-07-24T11:27:37;100205.1;;;25.93;60.00879
59987;BME280;46181;51.498;5.392;2023-07-24T11:32:06;100213.5;;;25.89;60.10938
59987;BME280;46181;51.498;5.392;2023-07-24T11:36:33;100212.2;;;25.8;60.45801
59987;BME280;46181;51.498;5.392;2023-07-24T11:41:03;100207.4;;;25.66;60.38184
59987;BME280;46181;51.498;5.392;2023-07-24T11:45:39;100208.4;;;25.65;60.42578
59987;BME280;46181;51.498;5.392;2023-07-24T11:50:10;100197.2;;;25.66;60.27539
59987;BME280;46181;51.498;5.392;2023-07-24T11:54:33;100195.4;;;25.74;60.07715
59987;BME280;46181;51.498;5.392;2023-07-24T11:59:12;100190.5;;;26.02;59.76465
59987;BME280;46181;51.498;5.392;2023-07-24T12:03:34;100183.9;;;26.24;59.31543
59987;BME280;46181;51.498;5.392;2023-07-24T12:08:03;100184.5;;;26.49;58.83594
59987;BME280;46181;51.498;5.392;2023-07-24T12:12:42;100175;;;26.56;58.23828
59987;BME280;46181;51.498;5.392;2023-07-24T12:17:08;100169.3;;;26.52;58.26758
59987;BME280;46181;51.498;5.392;2023-07-24T12:21:33;100167.3;;;26.65;58.14355
59987;BME280;46181;51.498;5.392;2023-07-24T12:26:03;100174.3;;;26.81;57.89746
59987;BME280;46181;51.498;5.392;2023-07-24T12:30:33;100169.6;;;26.94;57.44434
59987;BME280;46181;51.498;5.392;2023-07-24T12:35:03;100172.5;;;27.18;57.05469
59987;BME280;46181;51.498;5.392;2023-07-24T12:39:33;100170;;;27.22;56.75586
59987;BME280;46181;51.498;5.392;2023-07-24T12:44:03;100179.4;;;26.87;56.89941
59987;BME280;46181;51.498;5.392;2023-07-24T12:48:33;100158.1;;;26.57;57.66602
59987;BME280;46181;51.498;5.392;2023-07-24T12:53:03;100172.8;;;26.66;57.89941
59987;BME280;46181;51.498;5.392;2023-07-24T12:57:33;100164.8;;;26.54;57.9668
59987;BME280;46181;51.498;5.392;2023-07-24T13:02:03;100166.5;;;26.54;58.42188
59987;BME280;46181;51.498;5.392;2023-07-24T13:06:33;100165.2;;;26.71;58.45508
59987;BME280;46181;51.498;5.392;2023-07-24T13:11:03;100157;;;27.12;57.50293
59987;BME280;46181;51.498;5.392;2023-07-24T13:15:33;100147;;;27.41;56.61621
59987;BME280;46181;51.498;5.392;2023-07-24T13:20:03;100137.4;;;27.61;56.31445
59987;BME280;46181;51.498;5.392;2023-07-24T13:24:33;100141.5;;;27.93;55.71973
59987;BME280;46181;51.498;5.392;2023-07-24T13:29:03;100137.3;;;27.95;55.18359
59987;BME280;46181;51.498;5.392;2023-07-24T13:33:33;100142.7;;;27.63;55.34375
59987;BME280;46181;51.498;5.392;2023-07-24T13:38:03;100141;;;27.12;55.71387
59987;BME280;46181;51.498;5.392;2023-07-24T13:42:33;100145.7;;;26.69;56.26953
59987;BME280;46181;51.498;5.392;2023-07-24T13:47:03;100144;;;26.39;56.0791
59987;BME280;46181;51.498;5.392;2023-07-24T13:51:33;100158.5;;;25.86;56.30566
59987;BME280;46181;51.498;5.392;2023-07-24T13:56:03;100171.8;;;25.3;57.06348
59987;BME280;46181;51.498;5.392;2023-07-24T14:00:33;100186.3;;;24.76;57.42383
59987;BME280;46181;51.498;5.392;2023-07-24T14:05:03;100185.6;;;24.28;58.17578
59987;BME280;46181;51.498;5.392;2023-07-24T14:09:33;100209.4;;;23.98;58.78711
59987;BME280;46181;51.498;5.392;2023-07-24T14:14:03;100198.6;;;23.78;59.47949
59987;BME280;46181;51.498;5.392;2023-07-24T14:18:33;100203.4;;;23.76;59.9873
59987;BME280;46181;51.498;5.392;2023-07-24T14:23:03;100198.3;;;23.88;60.50293
59987;BME280;46181;51.498;5.392;2023-07-24T14:27:33;100188.9;;;24.42;60.55176
59987;BME280;46181;51.498;5.392;2023-07-24T14:32:03;100184.5;;;25.08;59.89551
59987;BME280;46181;51.498;5.392;2023-07-24T14:36:33;100175.1;;;25.63;59.00293
59987;BME280;46181;51.498;5.392;2023-07-24T14:41:03;100167.4;;;25.97;58.29004
59987;BME280;46181;51.498;5.392;2023-07-24T14:45:33;100161.6;;;26.25;57.88281
59987;BME280;46181;51.498;5.392;2023-07-24T14:50:03;100160;;;26.38;57.38672
59987;BME280;46181;51.498;5.392;2023-07-24T14:54:33;100152.3;;;26.39;57.44531
59987;BME280;46181;51.498;5.392;2023-07-24T14:59:03;100161.8;;;26.69;57.22656
59987;BME280;46181;51.498;5.392;2023-07-24T15:03:33;100153.4;;;27.04;56.61523
59987;BME280;46181;51.498;5.392;2023-07-24T15:08:03;100153.5;;;27.06;56.12793
59987;BME280;46181;51.498;5.392;2023-07-24T15:12:33;100151.7;;;26.9;56.09668
59987;BME280;46181;51.498;5.392;2023-07-24T15:17:03;100159.2;;;27.14;55.61035
59987;BME280;46181;51.498;5.392;2023-07-24T15:21:34;100164.3;;;27.32;54.7207
59987;BME280;46181;51.498;5.392;2023-07-24T15:26:03;100176.2;;;27.27;54.58594
59987;BME280;46181;51.498;5.392;2023-07-24T15:30:33;100188.4;;;27.41;53.75879
59987;BME280;46181;51.498;5.392;2023-07-24T15:35:03;100186.7;;;27.28;53.83789
59987;BME280;46181;51.498;5.392;2023-07-24T15:39:33;100197.8;;;27.13;53.28125
59987;BME280;46181;51.498;5.392;2023-07-24T15:44:03;100189.7;;;26.55;53.72852
59987;BME280;46181;51.498;5.392;2023-07-24T15:48:33;100197.7;;;26.16;54.32324
59987;BME280;46181;51.498;5.392;2023-07-24T15:53:03;100206.2;;;25.63;54.54004
59987;BME280;46181;51.498;5.392;2023-07-24T15:57:33;100213.4;;;24.87;55.42578
59987;BME280;46181;51.498;5.392;2023-07-24T16:02:03;100213.6;;;24.35;56.57031
59987;BME280;46181;51.498;5.392;2023-07-24T16:06:33;100219.5;;;24.21;57.63281
59987;BME280;46181;51.498;5.392;2023-07-24T16:11:03;100225.6;;;24.39;58.57422
59987;BME280;46181;51.498;5.392;2023-07-24T16:15:33;100230.2;;;25.74;57.26953
59987;BME280;46181;51.498;5.392;2023-07-24T16:20:03;100237.3;;;25.71;56.54297
59987;BME280;46181;51.498;5.392;2023-07-24T16:24:33;100239.8;;;25.79;56.61133
59987;BME280;46181;51.498;5.392;2023-07-24T16:29:03;100241.5;;;25.78;56.59863
59987;BME280;46181;51.498;5.392;2023-07-24T16:33:33;100238.4;;;25.56;56.73535
59987;BME280;46181;51.498;5.392;2023-07-24T16:38:03;100240.4;;;25.65;56.69824
59987;BME280;46181;51.498;5.392;2023-07-24T16:42:33;100248.1;;;25.51;56.63477
59987;BME280;46181;51.498;5.392;2023-07-24T16:47:03;100256.2;;;25.35;56.94043
59987;BME280;46181;51.498;5.392;2023-07-24T16:51:33;100255.2;;;25.27;57.01074
59987;BME280;46181;51.498;5.392;2023-07-24T16:56:03;100270.2;;;25.1;56.85059
59987;BME280;46181;51.498;5.392;2023-07-24T17:00:33;100284.4;;;24.95;56.86719
59987;BME280;46181;51.498;5.392;2023-07-24T17:05:03;100294.8;;;24.84;57.01563
59987;BME280;46181;51.498;5.392;2023-07-24T17:09:33;100296;;;24.84;56.84082
59987;BME280;46181;51.498;5.392;2023-07-24T17:14:03;100305.9;;;24.77;56.49512
59987;BME280;46181;51.498;5.392;2023-07-24T17:18:33;100318.6;;;24.67;56.04004
59987;BME280;46181;51.498;5.392;2023-07-24T17:23:03;100327;;;24.58;55.85449
59987;BME280;46181;51.498;5.392;2023-07-24T17:27:33;100338;;;24.41;55.8916
59987;BME280;46181;51.498;5.392;2023-07-24T17:32:03;100341.8;;;24.26;56.03516
59987;BME280;46181;51.498;5.392;2023-07-24T17:36:33;100349.8;;;24.1;55.99316
59987;BME280;46181;51.498;5.392;2023-07-24T17:41:03;100353.7;;;23.95;55.93848
59987;BME280;46181;51.498;5.392;2023-07-24T17:45:33;100366.6;;;23.87;56.08105
59987;BME280;46181;51.498;5.392;2023-07-24T17:50:03;100367.5;;;23.81;56.14258
59987;BME280;46181;51.498;5.392;2023-07-24T17:54:33;100371.8;;;23.78;56.26563
59987;BME280;46181;51.498;5.392;2023-07-24T17:59:03;100377;;;23.83;56.34375
59987;BME280;46181;51.498;5.392;2023-07-24T18:03:33;100382.4;;;23.84;56.14746
59987;BME280;46181;51.498;5.392;2023-07-24T18:08:03;100393.6;;;23.83;56.06445
59987;BME280;46181;51.498;5.392;2023-07-24T18:12:33;100401.2;;;23.77;55.99805
59987;BME280;46181;51.498;5.392;2023-07-24T18:17:03;100398.6;;;23.67;55.91602
59987;BME280;46181;51.498;5.392;2023-07-24T18:21:33;100396.3;;;23.63;55.94727
59987;BME280;46181;51.498;5.392;2023-07-24T18:26:03;100395.3;;;23.6;55.92969
59987;BME280;46181;51.498;5.392;2023-07-24T18:30:33;100392.3;;;23.55;55.87793
59987;BME280;46181;51.498;5.392;2023-07-24T18:35:03;100394.4;;;23.38;55.9375
59987;BME280;46181;51.498;5.392;2023-07-24T18:39:33;100396.5;;;23.19;55.94922
59987;BME280;46181;51.498;5.392;2023-07-24T18:44:03;100412.6;;;23.14;56.05859
59987;BME280;46181;51.498;5.392;2023-07-24T18:48:33;100414.2;;;23.14;56.15137
59987;BME280;46181;51.498;5.392;2023-07-24T18:53:03;100427.1;;;23.19;56.12207
59987;BME280;46181;51.498;5.392;2023-07-24T18:57:33;100430;;;23.2;56.15918
59987;BME280;46181;51.498;5.392;2023-07-24T19:02:03;100432.8;;;23.18;56.21484
59987;BME280;46181;51.498;5.392;2023-07-24T19:06:33;100438.3;;;23.17;56.20117
59987;BME280;46181;51.498;5.392;2023-07-24T19:11:03;100446.7;;;23.14;56.16309
59987;BME280;46181;51.498;5.392;2023-07-24T19:15:33;100451.8;;;23.1;56.19336
59987;BME280;46181;51.498;5.392;2023-07-24T19:20:04;100463.2;;;23.01;56.18164
59987;BME280;46181;51.498;5.392;2023-07-24T19:24:33;100465.7;;;22.98;56.28125
59987;BME280;46181;51.498;5.392;2023-07-24T19:29:03;100466.1;;;22.96;56.33691
59987;BME280;46181;51.498;5.392;2023-07-24T19:33:33;100471.7;;;22.94;56.39355
59987;BME280;46181;51.498;5.392;2023-07-24T19:38:03;100483.4;;;22.94;56.39258
59987;BME280;46181;51.498;5.392;2023-07-24T19:42:33;100495;;;22.91;56.24902
59987;BME280;46181;51.498;5.392;2023-07-24T19:47:03;100505.6;;;22.85;56.41699
59987;BME280;46181;51.498;5.392;2023-07-24T19:51:33;100513.2;;;22.74;56.44922
59987;BME280;46181;51.498;5.392;2023-07-24T19:56:03;100519.4;;;22.64;56.48242
59987;BME280;46181;51.498;5.392;2023-07-24T20:00:33;100532.7;;;22.57;56.58887
59987;BME280;46181;51.498;5.392;2023-07-24T20:05:03;100540.2;;;22.51;56.64063
59987;BME280;46181;51.498;5.392;2023-07-24T20:09:33;100542;;;22.47;56.57715
59987;BME280;46181;51.498;5.392;2023-07-24T20:14:03;100547.8;;;22.47;56.58887
59987;BME280;46181;51.498;5.392;2023-07-24T20:18:33;100545.3;;;22.46;56.56445
59987;BME280;46181;51.498;5.392;2023-07-24T20:23:03;100548.4;;;22.44;56.58496
59987;BME280;46181;51.498;5.392;2023-07-24T20:27:33;100548.2;;;22.44;56.49121
59987;BME280;46181;51.498;5.392;2023-07-24T20:32:03;100554.5;;;22.41;56.46484
59987;BME280;46181;51.498;5.392;2023-07-24T20:36:33;100559.1;;;22.38;56.48438
59987;BME280;46181;51.498;5.392;2023-07-24T20:41:03;100566.1;;;22.37;56.4248
59987;BME280;46181;51.498;5.392;2023-07-24T20:45:33;100564.3;;;22.29;56.45117
59987;BME280;46181;51.498;5.392;2023-07-24T20:50:03;100570.9;;;22.23;56.43164
59987;BME280;46181;51.498;5.392;2023-07-24T20:54:33;100568.4;;;22.18;56.49316
59987;BME280;46181;51.498;5.392;2023-07-24T20:59:03;100565.8;;;22.17;56.50488
59987;BME280;46181;51.498;5.392;2023-07-24T21:03:33;100560.8;;;22.14;56.46582
59987;BME280;46181;51.498;5.392;2023-07-24T21:08:03;100551.5;;;22.08;56.31836
59987;BME280;46181;51.498;5.392;2023-07-24T21:12:33;100553.7;;;21.97;56.82617
59987;BME280;46181;51.498;5.392;2023-07-24T21:17:03;100554;;;21.87;57.36719
59987;BME280;46181;51.498;5.392;2023-07-24T21:21:33;100554.4;;;21.76;57.45703
59987;BME280;46181;51.498;5.392;2023-07-24T21:26:04;100556.1;;;21.65;57.69727
59987;BME280;46181;51.498;5.392;2023-07-24T21:30:33;100548.9;;;21.6;57.96875
59987;BME280;46181;51.498;5.392;2023-07-24T21:35:03;100552.9;;;21.54;58.03027
59987;BME280;46181;51.498;5.392;2023-07-24T21:39:33;100562.2;;;21.47;58.33203
59987;BME280;46181;51.498;5.392;2023-07-24T21:44:03;100557.9;;;21.34;58.29297
59987;BME280;46181;51.498;5.392;2023-07-24T21:48:33;100556.6;;;21.19;58.45801
59987;BME280;46181;51.498;5.392;2023-07-24T21:53:03;100558.6;;;21.09;58.62891
59987;BME280;46181;51.498;5.392;2023-07-24T21:57:33;100565.8;;;21.01;58.77832
59987;BME280;46181;51.498;5.392;2023-07-24T22:02:03;100569.7;;;20.93;58.76953
59987;BME280;46181;51.498;5.392;2023-07-24T22:06:33;100568.1;;;20.83;59.03223
59987;BME280;46181;51.498;5.392;2023-07-24T22:11:03;100567.4;;;20.76;59.05859
59987;BME280;46181;51.498;5.392;2023-07-24T22:15:33;100571.5;;;20.69;59.11816
59987;BME280;46181;51.498;5.392;2023-07-24T22:20:03;100570.2;;;20.61;59.07227
59987;BME280;46181;51.498;5.392;2023-07-24T22:24:33;100570.8;;;20.55;59.09863
59987;BME280;46181;51.498;5.392;2023-07-24T22:29:03;100568.2;;;20.49;59.26172
59987;BME280;46181;51.498;5.392;2023-07-24T22:33:33;100569.1;;;20.42;59.15039
59987;BME280;46181;51.498;5.392;2023-07-24T22:38:03;100573.2;;;20.33;59.0918
59987;BME280;46181;51.498;5.392;2023-07-24T22:42:33;100579.8;;;20.28;59.22461
59987;BME280;46181;51.498;5.392;2023-07-24T22:47:03;100584.5;;;20.22;59.15918
59987;BME280;46181;51.498;5.392;2023-07-24T22:51:33;100580.1;;;20.13;59.23926
59987;BME280;46181;51.498;5.392;2023-07-24T22:56:03;100580;;;20.08;59.25488
59987;BME280;46181;51.498;5.392;2023-07-24T23:00:33;100584.1;;;20;59.1416
59987;BME280;46181;51.498;5.392;2023-07-24T23:05:03;100590.5;;;19.93;59.21094